createdAt,value
2022-11-05T00:00:50.818Z,0.00
2022-11-05T00:01:50.841Z,0.00
2022-11-05T00:02:50.797Z,0.00
2022-11-05T00:03:50.872Z,0.00
2022-11-05T00:04:50.783Z,0.00
2022-11-05T00:05:50.779Z,0.00
2022-11-05T00:06:50.777Z,0.00
2022-11-05T00:07:50.759Z,0.00
2022-11-05T00:08:50.762Z,0.00
2022-11-05T00:09:50.754Z,0.00
2022-11-05T00:10:51.017Z,0.00
2022-11-05T00:11:50.734Z,0.00
2022-11-05T00:12:50.732Z,0.00
2022-11-05T00:13:50.744Z,0.00
2022-11-05T00:14:50.718Z,0.00
2022-11-05T00:15:50.703Z,0.00
2022-11-05T00:16:50.694Z,0.00
2022-11-05T00:17:50.689Z,0.00
2022-11-05T00:18:50.681Z,0.00
2022-11-05T00:19:51.060Z,0.00
2022-11-05T00:20:50.814Z,0.00
2022-11-05T00:21:50.922Z,0.00
2022-11-05T00:22:50.646Z,0.00
2022-11-05T00:23:50.645Z,0.00
2022-11-05T00:24:50.632Z,0.00
2022-11-05T00:25:50.631Z,0.00
2022-11-05T00:26:50.626Z,0.00
2022-11-05T00:27:51.734Z,0.00
2022-11-05T00:28:50.613Z,0.00
2022-11-05T00:29:50.644Z,0.00
2022-11-05T00:30:50.598Z,0.00
2022-11-05T00:31:50.588Z,0.00
2022-11-05T00:32:51.234Z,0.00
2022-11-05T00:33:50.790Z,0.00
2022-11-05T00:34:50.563Z,0.00
2022-11-05T00:35:50.577Z,0.00
2022-11-05T00:36:50.564Z,0.00
2022-11-05T00:37:50.859Z,0.00
2022-11-05T00:38:50.542Z,0.00
2022-11-05T00:39:50.531Z,0.00
2022-11-05T00:40:50.990Z,0.00
2022-11-05T00:41:50.524Z,0.00
2022-11-05T00:42:50.507Z,0.00
2022-11-05T00:43:50.525Z,0.00
2022-11-05T00:44:50.500Z,0.00
2022-11-05T00:45:50.523Z,0.00
2022-11-05T00:46:50.485Z,0.00
2022-11-05T00:47:50.499Z,0.00
2022-11-05T00:48:50.470Z,0.00
2022-11-05T00:49:50.475Z,0.00
2022-11-05T00:50:51.371Z,0.00
2022-11-05T00:51:50.462Z,0.00
2022-11-05T00:52:50.466Z,0.00
2022-11-05T00:53:50.438Z,0.00
2022-11-05T00:54:50.456Z,0.00
2022-11-05T00:55:50.427Z,0.00
2022-11-05T00:56:50.410Z,0.00
2022-11-05T00:57:50.404Z,0.00
2022-11-05T00:58:50.405Z,0.00
2022-11-05T00:59:50.402Z,0.00
2022-11-05T01:00:50.394Z,0.00
2022-11-05T01:01:50.649Z,0.00
2022-11-05T01:02:50.644Z,0.00
2022-11-05T01:03:51.912Z,0.00
2022-11-05T01:04:50.368Z,0.00
2022-11-05T01:05:50.380Z,0.00
2022-11-05T01:06:50.349Z,0.00
2022-11-05T01:07:50.346Z,0.00
2022-11-05T01:08:50.330Z,0.00
2022-11-05T01:09:50.328Z,0.00
2022-11-05T01:10:50.323Z,0.00
2022-11-05T01:11:50.329Z,0.00
2022-11-05T01:12:50.323Z,0.00
2022-11-05T01:13:50.300Z,0.00
2022-11-05T01:14:50.285Z,0.00
2022-11-05T01:15:50.281Z,0.00
2022-11-05T01:16:50.278Z,0.00
2022-11-05T01:17:50.303Z,0.00
2022-11-05T01:18:50.281Z,0.00
2022-11-05T01:19:51.617Z,0.00
2022-11-05T01:20:50.244Z,0.00
2022-11-05T01:21:50.242Z,0.00
2022-11-05T01:22:50.243Z,0.00
2022-11-05T01:23:50.225Z,0.00
2022-11-05T01:24:50.229Z,0.00
2022-11-05T01:25:50.221Z,0.00
2022-11-05T01:26:50.202Z,0.00
2022-11-05T01:27:50.217Z,0.00
2022-11-05T01:28:50.326Z,0.00
2022-11-05T01:29:50.205Z,0.00
2022-11-05T01:30:50.183Z,0.00
2022-11-05T01:31:50.171Z,0.00
2022-11-05T01:32:50.167Z,0.00
2022-11-05T01:33:50.288Z,0.00
2022-11-05T01:34:50.149Z,0.00
2022-11-05T01:35:50.154Z,0.00
2022-11-05T01:36:50.135Z,0.00
2022-11-05T01:37:50.129Z,0.00
2022-11-05T01:38:50.127Z,0.00
2022-11-05T01:39:50.128Z,0.00
2022-11-05T01:40:50.112Z,0.00
2022-11-05T01:41:50.121Z,0.00
2022-11-05T01:42:50.106Z,0.00
2022-11-05T01:43:50.091Z,0.00
2022-11-05T01:44:50.613Z,0.00
2022-11-05T01:45:50.074Z,0.00
2022-11-05T01:46:50.084Z,0.00
2022-11-05T01:47:50.066Z,0.00
2022-11-05T01:48:50.052Z,0.00
2022-11-05T01:49:50.138Z,0.00
2022-11-05T01:50:50.055Z,0.00
2022-11-05T01:51:50.812Z,0.00
2022-11-05T01:52:50.043Z,0.00
2022-11-05T01:53:50.033Z,0.00
2022-11-05T01:54:50.005Z,0.00
2022-11-05T01:55:50.005Z,0.00
2022-11-05T01:56:50.021Z,0.00
2022-11-05T01:57:49.985Z,0.00
2022-11-05T01:58:50.008Z,0.00
2022-11-05T01:59:49.972Z,0.00
2022-11-05T02:00:49.969Z,0.00
2022-11-05T02:01:50.775Z,0.00
2022-11-05T02:02:50.238Z,0.00
2022-11-05T02:03:49.989Z,0.00
2022-11-05T02:04:49.947Z,0.00
2022-11-05T02:05:49.963Z,0.00
2022-11-05T02:06:49.935Z,0.00
2022-11-05T02:07:49.922Z,0.00
2022-11-05T02:08:50.612Z,0.00
2022-11-05T02:09:49.903Z,0.00
2022-11-05T02:10:49.936Z,0.00
2022-11-05T02:11:49.885Z,0.00
2022-11-05T02:12:49.900Z,0.00
2022-11-05T02:13:49.881Z,0.00
2022-11-05T02:14:49.868Z,0.00
2022-11-05T02:15:49.864Z,0.00
2022-11-05T02:16:49.855Z,0.00
2022-11-05T02:17:49.848Z,0.00
2022-11-05T02:18:49.845Z,0.00
2022-11-05T02:19:49.856Z,0.00
2022-11-05T02:20:52.336Z,0.00
2022-11-05T02:21:50.236Z,0.00
2022-11-05T02:22:49.813Z,0.00
2022-11-05T02:23:49.808Z,0.00
2022-11-05T02:24:49.803Z,0.00
2022-11-05T02:25:49.797Z,0.00
2022-11-05T02:26:49.779Z,0.00
2022-11-05T02:27:49.798Z,0.00
2022-11-05T02:28:49.781Z,0.00
2022-11-05T02:29:49.760Z,0.00
2022-11-05T02:30:49.760Z,0.00
2022-11-05T02:31:49.749Z,0.00
2022-11-05T02:32:49.740Z,0.00
2022-11-05T02:33:49.750Z,0.00
2022-11-05T02:34:49.727Z,0.00
2022-11-05T02:35:50.300Z,0.00
2022-11-05T02:36:49.722Z,0.00
2022-11-05T02:37:49.730Z,0.00
2022-11-05T02:38:49.694Z,0.00
2022-11-05T02:39:49.695Z,0.00
2022-11-05T02:40:49.686Z,0.00
2022-11-05T02:41:49.676Z,0.00
2022-11-05T02:42:49.673Z,0.00
2022-11-05T02:43:49.670Z,0.00
2022-11-05T02:44:49.669Z,0.00
2022-11-05T02:45:49.649Z,0.00
2022-11-05T02:46:49.651Z,0.00
2022-11-05T02:47:50.178Z,0.00
2022-11-05T02:48:49.626Z,0.00
2022-11-05T02:49:50.293Z,0.00
2022-11-05T02:50:49.644Z,0.00
2022-11-05T02:51:49.619Z,0.00
2022-11-05T02:52:49.611Z,0.00
2022-11-05T02:53:49.616Z,0.00
2022-11-05T02:54:49.594Z,0.00
2022-11-05T02:55:49.614Z,0.00
2022-11-05T02:56:49.596Z,0.00
2022-11-05T02:57:49.565Z,0.00
2022-11-05T02:58:49.551Z,0.00
2022-11-05T02:59:50.828Z,0.00
2022-11-05T03:00:49.538Z,0.00
2022-11-05T03:01:49.694Z,0.00
2022-11-05T03:02:49.730Z,0.00
2022-11-05T03:03:49.521Z,0.00
2022-11-05T03:04:49.517Z,0.00
2022-11-05T03:05:49.508Z,0.00
2022-11-05T03:06:49.556Z,0.00
2022-11-05T03:07:49.490Z,0.00
2022-11-05T03:08:49.488Z,0.00
2022-11-05T03:09:49.745Z,0.00
2022-11-05T03:10:50.649Z,0.00
2022-11-05T03:11:49.464Z,0.00
2022-11-05T03:12:49.455Z,0.00
2022-11-05T03:13:49.444Z,0.00
2022-11-05T03:14:50.106Z,0.00
2022-11-05T03:15:49.861Z,0.00
2022-11-05T03:16:49.434Z,0.00
2022-11-05T03:17:49.432Z,0.00
2022-11-05T03:18:49.416Z,0.00
2022-11-05T03:19:49.413Z,0.00
2022-11-05T03:20:49.853Z,0.00
2022-11-05T03:21:49.391Z,0.00
2022-11-05T03:22:49.398Z,0.00
2022-11-05T03:23:49.387Z,0.00
2022-11-05T03:24:49.374Z,0.00
2022-11-05T03:25:49.387Z,0.00
2022-11-05T03:26:49.373Z,0.00
2022-11-05T03:27:49.351Z,0.00
2022-11-05T03:28:49.353Z,0.00
2022-11-05T03:29:49.338Z,0.00
2022-11-05T03:30:49.331Z,0.00
2022-11-05T03:31:49.334Z,0.00
2022-11-05T03:32:49.322Z,0.00
2022-11-05T03:33:49.335Z,0.00
2022-11-05T03:34:49.302Z,0.00
2022-11-05T03:35:49.304Z,0.00
2022-11-05T03:36:49.292Z,0.00
2022-11-05T03:37:49.284Z,0.00
2022-11-05T03:38:49.780Z,0.00
2022-11-05T03:39:49.270Z,0.00
2022-11-05T03:40:49.260Z,0.00
2022-11-05T03:41:49.287Z,0.00
2022-11-05T03:42:49.248Z,0.00
2022-11-05T03:43:49.652Z,0.00
2022-11-05T03:44:49.237Z,0.00
2022-11-05T03:45:49.223Z,0.00
2022-11-05T03:46:49.233Z,0.00
2022-11-05T03:47:49.632Z,0.00
2022-11-05T03:48:49.289Z,0.00
2022-11-05T03:49:49.204Z,0.00
2022-11-05T03:50:49.184Z,0.00
2022-11-05T03:51:49.187Z,0.00
2022-11-05T03:52:49.179Z,0.00
2022-11-05T03:53:49.819Z,0.00
2022-11-05T03:54:49.158Z,0.00
2022-11-05T03:55:49.159Z,0.00
2022-11-05T03:56:49.159Z,0.00
2022-11-05T03:57:49.161Z,0.00
2022-11-05T03:58:50.032Z,0.00
2022-11-05T03:59:49.141Z,0.00
2022-11-05T04:00:49.112Z,0.00
2022-11-05T04:01:49.293Z,0.00
2022-11-05T04:02:49.272Z,0.00
2022-11-05T04:03:49.101Z,0.00
2022-11-05T04:04:49.096Z,0.00
2022-11-05T04:05:49.080Z,0.00
2022-11-05T04:06:49.629Z,0.00
2022-11-05T04:07:49.064Z,0.00
2022-11-05T04:08:49.059Z,0.00
2022-11-05T04:09:49.064Z,0.00
2022-11-05T04:10:49.085Z,0.00
2022-11-05T04:11:49.687Z,0.00
2022-11-05T04:12:49.032Z,0.00
2022-11-05T04:13:49.053Z,0.00
2022-11-05T04:14:49.014Z,0.00
2022-11-05T04:15:49.032Z,0.00
2022-11-05T04:16:49.003Z,0.00
2022-11-05T04:17:48.993Z,0.00
2022-11-05T04:18:48.991Z,0.00
2022-11-05T04:19:48.988Z,0.00
2022-11-05T04:20:48.969Z,0.00
2022-11-05T04:21:48.982Z,0.00
2022-11-05T04:22:48.960Z,0.00
2022-11-05T04:23:48.955Z,0.00
2022-11-05T04:24:48.949Z,0.00
2022-11-05T04:25:48.987Z,0.00
2022-11-05T04:26:48.943Z,0.00
2022-11-05T04:27:48.924Z,0.00
2022-11-05T04:28:48.922Z,0.00
2022-11-05T04:29:49.107Z,0.00
2022-11-05T04:30:48.910Z,0.00
2022-11-05T04:31:48.921Z,0.00
2022-11-05T04:32:48.888Z,0.00
2022-11-05T04:33:48.888Z,0.00
2022-11-05T04:34:48.871Z,0.00
2022-11-05T04:35:48.873Z,0.00
2022-11-05T04:36:48.866Z,0.00
2022-11-05T04:37:48.855Z,0.00
2022-11-05T04:38:48.857Z,0.00
2022-11-05T04:39:48.835Z,0.00
2022-11-05T04:40:48.829Z,0.00
2022-11-05T04:41:48.965Z,0.00
2022-11-05T04:42:48.830Z,0.00
2022-11-05T04:43:48.815Z,0.00
2022-11-05T04:44:48.808Z,0.00
2022-11-05T04:45:48.825Z,0.00
2022-11-05T04:46:48.792Z,0.00
2022-11-05T04:47:49.201Z,0.00
2022-11-05T04:48:48.778Z,0.00
2022-11-05T04:49:48.777Z,0.00
2022-11-05T04:50:48.761Z,0.00
2022-11-05T04:51:48.762Z,0.00
2022-11-05T04:52:48.749Z,0.00
2022-11-05T04:53:48.743Z,0.00
2022-11-05T04:54:48.737Z,0.00
2022-11-05T04:55:48.724Z,0.00
2022-11-05T04:56:48.715Z,0.00
2022-11-05T04:57:48.720Z,0.00
2022-11-05T04:58:48.724Z,0.00
2022-11-05T04:59:48.704Z,0.00
2022-11-05T05:00:48.893Z,0.00
2022-11-05T05:01:48.771Z,0.00
2022-11-05T05:02:48.679Z,0.00
2022-11-05T05:03:48.670Z,0.00
2022-11-05T05:04:48.673Z,0.00
2022-11-05T05:05:48.682Z,0.00
2022-11-05T05:06:49.644Z,0.00
2022-11-05T05:07:48.644Z,0.00
2022-11-05T05:08:48.632Z,0.00
2022-11-05T05:09:48.634Z,0.00
2022-11-05T05:10:48.619Z,0.00
2022-11-05T05:11:49.216Z,0.00
2022-11-05T05:12:48.614Z,0.00
2022-11-05T05:13:48.602Z,0.00
2022-11-05T05:14:48.609Z,0.00
2022-11-05T05:15:49.474Z,0.00
2022-11-05T05:16:48.586Z,0.00
2022-11-05T05:17:48.597Z,0.00
2022-11-05T05:18:48.575Z,0.00
2022-11-05T05:19:48.561Z,0.00
2022-11-05T05:20:48.561Z,0.00
2022-11-05T05:21:48.579Z,0.00
2022-11-05T05:22:48.540Z,0.00
2022-11-05T05:23:48.556Z,0.00
2022-11-05T05:24:52.584Z,0.00
2022-11-05T05:25:48.522Z,0.00
2022-11-05T05:26:48.542Z,0.00
2022-11-05T05:27:48.513Z,0.00
2022-11-05T05:28:49.229Z,0.00
2022-11-05T05:29:48.504Z,0.00
2022-11-05T05:30:48.494Z,0.00
2022-11-05T05:31:48.495Z,0.00
2022-11-05T05:32:48.473Z,0.00
2022-11-05T05:33:48.498Z,0.00
2022-11-05T05:34:48.465Z,0.00
2022-11-05T05:35:48.459Z,0.00
2022-11-05T05:36:48.450Z,0.00
2022-11-05T05:37:48.451Z,0.00
2022-11-05T05:38:48.455Z,0.00
2022-11-05T05:39:48.426Z,0.00
2022-11-05T05:40:48.424Z,0.00
2022-11-05T05:41:48.423Z,0.00
2022-11-05T05:42:49.150Z,0.00
2022-11-05T05:43:48.410Z,0.00
2022-11-05T05:44:48.433Z,0.00
2022-11-05T05:45:48.396Z,0.00
2022-11-05T05:46:48.385Z,0.00
2022-11-05T05:47:48.376Z,4.00
2022-11-05T05:48:48.372Z,4.00
2022-11-05T05:49:48.402Z,4.00
2022-11-05T05:50:48.361Z,4.00
2022-11-05T05:51:48.357Z,4.00
2022-11-05T05:52:48.360Z,8.00
2022-11-05T05:53:48.339Z,4.00
2022-11-05T05:54:48.369Z,4.00
2022-11-05T05:55:48.331Z,8.00
2022-11-05T05:56:48.312Z,8.00
2022-11-05T05:57:48.413Z,12.00
2022-11-05T05:58:48.299Z,16.00
2022-11-05T05:59:48.302Z,16.00
2022-11-05T06:00:48.302Z,20.00
2022-11-05T06:01:48.427Z,24.00
2022-11-05T06:02:48.409Z,28.00
2022-11-05T06:03:48.328Z,32.00
2022-11-05T06:04:48.277Z,40.00
2022-11-05T06:05:48.369Z,48.00
2022-11-05T06:06:48.292Z,56.00
2022-11-05T06:07:48.278Z,60.00
2022-11-05T06:08:48.230Z,72.00
2022-11-05T06:09:48.232Z,84.00
2022-11-05T06:10:48.859Z,96.00
2022-11-05T06:11:48.219Z,108.00
2022-11-05T06:12:48.263Z,120.00
2022-11-05T06:13:48.219Z,136.00
2022-11-05T06:14:48.301Z,156.00
2022-11-05T06:15:48.216Z,168.00
2022-11-05T06:16:48.176Z,192.00
2022-11-05T06:17:51.705Z,212.00
2022-11-05T06:18:48.176Z,232.00
2022-11-05T06:19:48.162Z,256.00
2022-11-05T06:20:48.156Z,280.00
2022-11-05T06:21:48.292Z,304.00
2022-11-05T06:22:48.167Z,332.00
2022-11-05T06:23:48.165Z,360.00
2022-11-05T06:24:48.134Z,388.00
2022-11-05T06:25:48.131Z,416.00
2022-11-05T06:26:48.120Z,444.00
2022-11-05T06:27:48.185Z,472.00
2022-11-05T06:28:48.124Z,504.00
2022-11-05T06:29:48.094Z,536.00
2022-11-05T06:30:48.099Z,564.00
2022-11-05T06:31:48.125Z,596.00
2022-11-05T06:32:48.082Z,628.00
2022-11-05T06:33:48.077Z,656.00
2022-11-05T06:34:48.065Z,692.00
2022-11-05T06:35:48.056Z,728.00
2022-11-05T06:36:48.043Z,764.00
2022-11-05T06:37:48.185Z,796.00
2022-11-05T06:38:48.035Z,832.00
2022-11-05T06:39:48.051Z,872.00
2022-11-05T06:40:48.038Z,912.00
2022-11-05T06:42:16.511Z,956.00
2022-11-05T06:42:49.016Z,996.00
2022-11-05T06:43:48.011Z,1044.00
2022-11-05T06:44:48.008Z,1092.00
2022-11-05T06:45:47.996Z,1152.00
2022-11-05T06:46:48.761Z,1224.00
2022-11-05T06:47:47.969Z,1296.00
2022-11-05T06:48:47.990Z,1396.00
2022-11-05T06:49:48.133Z,1520.00
2022-11-05T06:50:48.356Z,1636.00
2022-11-05T06:51:48.895Z,1704.00
2022-11-05T06:52:47.944Z,1716.00
2022-11-05T06:53:47.955Z,1796.00
2022-11-05T06:54:47.934Z,1912.00
2022-11-05T06:55:47.937Z,2140.00
2022-11-05T06:56:47.913Z,2532.00
2022-11-05T06:57:47.917Z,2604.00
2022-11-05T06:58:47.898Z,2436.00
2022-11-05T06:59:47.910Z,2256.00
2022-11-05T07:00:48.733Z,2312.00
2022-11-05T07:01:48.528Z,2412.00
2022-11-05T07:02:47.905Z,2360.00
2022-11-05T07:03:47.884Z,2320.00
2022-11-05T07:04:47.865Z,2460.00
2022-11-05T07:05:47.877Z,3032.00
2022-11-05T07:06:47.871Z,4484.00
2022-11-05T07:07:47.876Z,4628.00
2022-11-05T07:08:47.835Z,4524.00
2022-11-05T07:09:47.862Z,4284.00
2022-11-05T07:10:47.825Z,4164.00
2022-11-05T07:11:47.816Z,3664.00
2022-11-05T07:12:47.817Z,4376.00
2022-11-05T07:13:47.824Z,4524.00
2022-11-05T07:14:47.804Z,3572.00
2022-11-05T07:15:47.799Z,2988.00
2022-11-05T07:16:47.786Z,2408.00
2022-11-05T07:17:47.834Z,2328.00
2022-11-05T07:18:47.799Z,2392.00
2022-11-05T07:19:47.768Z,2684.00
2022-11-05T07:20:47.770Z,2900.00
2022-11-05T07:21:47.757Z,2912.00
2022-11-05T07:22:47.744Z,2508.00
2022-11-05T07:23:47.774Z,2704.00
2022-11-05T07:24:47.739Z,3004.00
2022-11-05T07:25:47.752Z,3416.00
2022-11-05T07:26:47.724Z,4828.00
2022-11-05T07:27:47.723Z,4984.00
2022-11-05T07:28:48.134Z,4264.00
2022-11-05T07:29:47.705Z,7164.00
2022-11-05T07:30:48.220Z,7340.00
2022-11-05T07:31:47.700Z,7828.00
2022-11-05T07:32:47.687Z,8232.00
2022-11-05T07:33:47.685Z,8848.00
2022-11-05T07:34:47.673Z,9088.00
2022-11-05T07:35:47.666Z,9360.00
2022-11-05T07:36:47.671Z,9692.00
2022-11-05T07:37:47.685Z,9832.00
2022-11-05T07:38:47.650Z,10036.00
2022-11-05T07:39:47.643Z,10260.00
2022-11-05T07:40:47.648Z,10240.00
2022-11-05T07:41:47.651Z,10684.00
2022-11-05T07:42:48.196Z,10952.00
2022-11-05T07:43:47.605Z,11116.00
2022-11-05T07:44:47.615Z,13728.00
2022-11-05T07:45:47.587Z,16672.00
2022-11-05T07:46:47.583Z,17344.00
2022-11-05T07:47:47.649Z,16832.00
2022-11-05T07:48:47.562Z,14400.00
2022-11-05T07:49:47.566Z,12752.00
2022-11-05T07:50:47.550Z,12884.00
2022-11-05T07:51:47.544Z,15872.00
2022-11-05T07:52:47.547Z,19712.00
2022-11-05T07:53:47.545Z,20224.00
2022-11-05T07:54:47.531Z,19136.00
2022-11-05T07:55:47.526Z,17856.00
2022-11-05T07:56:47.507Z,16640.00
2022-11-05T07:57:47.645Z,14784.00
2022-11-05T07:58:47.495Z,14176.00
2022-11-05T07:59:47.490Z,15680.00
2022-11-05T08:00:47.629Z,19008.00
2022-11-05T08:01:47.686Z,20832.00
2022-11-05T08:02:47.741Z,21856.00
2022-11-05T08:03:47.657Z,22336.00
2022-11-05T08:04:47.451Z,22304.00
2022-11-05T08:05:47.457Z,20992.00
2022-11-05T08:06:47.452Z,19936.00
2022-11-05T08:07:47.433Z,19776.00
2022-11-05T08:08:47.432Z,20864.00
2022-11-05T08:09:47.426Z,22016.00
2022-11-05T08:10:47.410Z,23008.00
2022-11-05T08:11:47.405Z,23296.00
2022-11-05T08:12:48.086Z,23136.00
2022-11-05T08:13:47.429Z,23648.00
2022-11-05T08:14:47.397Z,22752.00
2022-11-05T08:15:47.383Z,19808.00
2022-11-05T08:16:47.365Z,16928.00
2022-11-05T08:17:47.755Z,16512.00
2022-11-05T08:18:47.350Z,16704.00
2022-11-05T08:19:47.347Z,16512.00
2022-11-05T08:20:47.369Z,16736.00
2022-11-05T08:21:47.330Z,16544.00
2022-11-05T08:22:47.326Z,16448.00
2022-11-05T08:23:47.334Z,16416.00
2022-11-05T08:24:47.304Z,16736.00
2022-11-05T08:25:47.324Z,16544.00
2022-11-05T08:26:47.310Z,16576.00
2022-11-05T08:27:47.294Z,16576.00
2022-11-05T08:28:47.309Z,16672.00
2022-11-05T08:29:47.304Z,16960.00
2022-11-05T08:30:47.266Z,16960.00
2022-11-05T08:31:47.260Z,17088.00
2022-11-05T08:32:47.253Z,17248.00
2022-11-05T08:33:47.254Z,17440.00
2022-11-05T08:34:47.254Z,17440.00
2022-11-05T08:35:47.237Z,17632.00
2022-11-05T08:36:48.935Z,17632.00
2022-11-05T08:37:47.222Z,17856.00
2022-11-05T08:38:47.209Z,17728.00
2022-11-05T08:39:47.201Z,17856.00
2022-11-05T08:40:47.202Z,18080.00
2022-11-05T08:41:47.213Z,18176.00
2022-11-05T08:42:47.174Z,18080.00
2022-11-05T08:43:47.240Z,18080.00
2022-11-05T08:44:47.191Z,18144.00
2022-11-05T08:45:47.193Z,18176.00
2022-11-05T08:46:47.320Z,18272.00
2022-11-05T08:47:47.246Z,18368.00
2022-11-05T08:48:47.136Z,18368.00
2022-11-05T08:49:47.137Z,18432.00
2022-11-05T08:50:47.130Z,18528.00
2022-11-05T08:51:47.114Z,18720.00
2022-11-05T08:52:48.018Z,18784.00
2022-11-05T08:53:47.118Z,18816.00
2022-11-05T08:54:47.101Z,18848.00
2022-11-05T08:55:47.143Z,18880.00
2022-11-05T08:56:48.079Z,18912.00
2022-11-05T08:57:47.083Z,18880.00
2022-11-05T08:58:47.069Z,18784.00
2022-11-05T08:59:47.060Z,18944.00
2022-11-05T09:00:47.107Z,18976.00
2022-11-05T09:01:48.330Z,19008.00
2022-11-05T09:02:47.042Z,19008.00
2022-11-05T09:03:47.034Z,18880.00
2022-11-05T09:04:47.732Z,18720.00
2022-11-05T09:05:47.055Z,18784.00
2022-11-05T09:06:47.023Z,18976.00
2022-11-05T09:07:47.020Z,18976.00
2022-11-05T09:08:47.044Z,18944.00
2022-11-05T09:09:47.012Z,18944.00
2022-11-05T09:10:47.044Z,18944.00
2022-11-05T09:12:10.650Z,19072.00
2022-11-05T09:12:47.963Z,19136.00
2022-11-05T09:13:46.998Z,19040.00
2022-11-05T09:14:46.964Z,19072.00
2022-11-05T09:15:47.044Z,19072.00
2022-11-05T09:16:46.999Z,19104.00
2022-11-05T09:17:47.071Z,19104.00
2022-11-05T09:18:46.924Z,19168.00
2022-11-05T09:19:46.979Z,19168.00
2022-11-05T09:20:46.920Z,19328.00
2022-11-05T09:21:46.916Z,19264.00
2022-11-05T09:22:47.151Z,19264.00
2022-11-05T09:23:46.919Z,19328.00
2022-11-05T09:24:46.903Z,19392.00
2022-11-05T09:25:46.905Z,19424.00
2022-11-05T09:26:46.865Z,19328.00
2022-11-05T09:27:46.860Z,19328.00
2022-11-05T09:28:46.870Z,19328.00
2022-11-05T09:29:46.850Z,19328.00
2022-11-05T09:30:46.889Z,19392.00
2022-11-05T09:31:46.844Z,19456.00
2022-11-05T09:32:46.858Z,19488.00
2022-11-05T09:33:47.034Z,19584.00
2022-11-05T09:34:46.838Z,19616.00
2022-11-05T09:35:46.811Z,19648.00
2022-11-05T09:36:46.869Z,19648.00
2022-11-05T09:37:46.800Z,19552.00
2022-11-05T09:38:47.532Z,19680.00
2022-11-05T09:39:47.305Z,19424.00
2022-11-05T09:40:46.785Z,19744.00
2022-11-05T09:41:46.785Z,19712.00
2022-11-05T09:42:46.775Z,19648.00
2022-11-05T09:43:46.753Z,17728.00
2022-11-05T09:44:49.539Z,14076.00
2022-11-05T09:45:46.782Z,19520.00
2022-11-05T09:46:46.734Z,19936.00
2022-11-05T09:47:46.740Z,19680.00
2022-11-05T09:48:46.727Z,19808.00
2022-11-05T09:49:46.737Z,19744.00
2022-11-05T09:50:46.712Z,19648.00
2022-11-05T09:51:46.708Z,19648.00
2022-11-05T09:52:46.695Z,19712.00
2022-11-05T09:53:46.691Z,19904.00
2022-11-05T09:54:46.684Z,20000.00
2022-11-05T09:55:47.109Z,19968.00
2022-11-05T09:56:46.667Z,20000.00
2022-11-05T09:57:46.652Z,19968.00
2022-11-05T09:58:46.654Z,19904.00
2022-11-05T09:59:46.647Z,19840.00
2022-11-05T10:00:46.669Z,19808.00
2022-11-05T10:01:46.752Z,19872.00
2022-11-05T10:02:46.627Z,19936.00
2022-11-05T10:03:46.605Z,19904.00
2022-11-05T10:04:46.605Z,19776.00
2022-11-05T10:05:47.607Z,19776.00
2022-11-05T10:06:46.586Z,19616.00
2022-11-05T10:07:46.590Z,19520.00
2022-11-05T10:08:46.638Z,19616.00
2022-11-05T10:09:46.568Z,19680.00
2022-11-05T10:10:46.563Z,19712.00
2022-11-05T10:11:47.088Z,19776.00
2022-11-05T10:12:46.576Z,19744.00
2022-11-05T10:13:46.539Z,19776.00
2022-11-05T10:14:46.543Z,19872.00
2022-11-05T10:15:46.531Z,19776.00
2022-11-05T10:16:46.519Z,19712.00
2022-11-05T10:17:46.506Z,19840.00
2022-11-05T10:18:46.496Z,19712.00
2022-11-05T10:19:46.493Z,19776.00
2022-11-05T10:20:46.530Z,20512.00
2022-11-05T10:22:49.615Z,19808.00
2022-11-05T10:23:46.496Z,20000.00
2022-11-05T10:24:46.504Z,20128.00
2022-11-05T10:25:46.454Z,20032.00
2022-11-05T10:26:47.422Z,19776.00
2022-11-05T10:27:46.453Z,8172.00
2022-11-05T10:28:46.419Z,8940.00
2022-11-05T10:29:46.441Z,20512.00
2022-11-05T10:30:46.413Z,17952.00
2022-11-05T10:31:46.397Z,14172.00
2022-11-05T10:32:46.404Z,19904.00
2022-11-05T10:33:47.352Z,20224.00
2022-11-05T10:34:46.439Z,19360.00
2022-11-05T10:35:46.384Z,20800.00
2022-11-05T10:36:46.381Z,22304.00
2022-11-05T10:37:46.381Z,23776.00
2022-11-05T10:38:46.353Z,23072.00
2022-11-05T10:39:46.354Z,22624.00
2022-11-05T10:40:46.339Z,23168.00
2022-11-05T10:41:46.333Z,23968.00
2022-11-05T10:42:46.333Z,19424.00
2022-11-05T10:43:46.340Z,10160.00
2022-11-05T10:44:46.340Z,9080.00
2022-11-05T10:45:46.317Z,22336.00
2022-11-05T10:46:46.346Z,21632.00
2022-11-05T10:47:46.294Z,12712.00
2022-11-05T10:48:46.293Z,14388.00
2022-11-05T10:49:46.408Z,23584.00
2022-11-05T10:50:46.270Z,23712.00
2022-11-05T10:51:46.284Z,12112.00
2022-11-05T10:52:46.263Z,12680.00
2022-11-05T10:53:46.312Z,11904.00
2022-11-05T10:54:46.266Z,10900.00
2022-11-05T10:55:46.237Z,9188.00
2022-11-05T10:56:46.217Z,9296.00
2022-11-05T10:57:46.227Z,10444.00
2022-11-05T10:58:46.228Z,16992.00
2022-11-05T10:59:46.204Z,25824.00
2022-11-05T11:00:46.287Z,10856.00
2022-11-05T11:01:46.279Z,9188.00
2022-11-05T11:02:46.172Z,7952.00
2022-11-05T11:03:46.167Z,7228.00
2022-11-05T11:04:46.212Z,6948.00
2022-11-05T11:05:46.161Z,7232.00
2022-11-05T11:06:46.153Z,20224.00
2022-11-05T11:07:46.145Z,6552.00
2022-11-05T11:08:46.130Z,6068.00
2022-11-05T11:09:46.613Z,6204.00
2022-11-05T11:10:46.115Z,6032.00
2022-11-05T11:11:46.109Z,6004.00
2022-11-05T11:12:46.106Z,6532.00
2022-11-05T11:13:46.156Z,16672.00
2022-11-05T11:14:46.108Z,9596.00
2022-11-05T11:15:46.085Z,8084.00
2022-11-05T11:16:46.082Z,6904.00
2022-11-05T11:17:46.203Z,6964.00
2022-11-05T11:18:46.082Z,11496.00
2022-11-05T11:19:46.075Z,9568.00
2022-11-05T11:20:46.044Z,8292.00
2022-11-05T11:21:46.054Z,20672.00
2022-11-05T11:22:46.066Z,21344.00
2022-11-05T11:23:46.099Z,14352.00
2022-11-05T11:24:46.035Z,21760.00
2022-11-05T11:25:46.043Z,19648.00
2022-11-05T11:26:46.014Z,19552.00
2022-11-05T11:27:46.005Z,19328.00
2022-11-05T11:28:46.805Z,19104.00
2022-11-05T11:29:49.382Z,19136.00
2022-11-05T11:30:45.979Z,19040.00
2022-11-05T11:31:45.978Z,18976.00
2022-11-05T11:32:45.970Z,19040.00
2022-11-05T11:33:46.000Z,19200.00
2022-11-05T11:34:45.948Z,19328.00
2022-11-05T11:35:45.953Z,19424.00
2022-11-05T11:36:45.925Z,19488.00
2022-11-05T11:37:45.927Z,19264.00
2022-11-05T11:38:45.964Z,19360.00
2022-11-05T11:39:45.911Z,19200.00
2022-11-05T11:40:45.917Z,19104.00
2022-11-05T11:41:45.927Z,18784.00
2022-11-05T11:42:45.904Z,18496.00
2022-11-05T11:43:45.887Z,18560.00
2022-11-05T11:44:45.912Z,18528.00
2022-11-05T11:45:45.909Z,18432.00
2022-11-05T11:46:45.892Z,18432.00
2022-11-05T11:47:45.853Z,18464.00
2022-11-05T11:48:45.835Z,18464.00
2022-11-05T11:49:45.864Z,18240.00
2022-11-05T11:50:45.827Z,18112.00
2022-11-05T11:51:49.954Z,17984.00
2022-11-05T11:52:45.850Z,17984.00
2022-11-05T11:53:45.810Z,17984.00
2022-11-05T11:54:45.799Z,18272.00
2022-11-05T11:55:46.270Z,18784.00
2022-11-05T11:56:46.029Z,19008.00
2022-11-05T11:57:45.809Z,19776.00
2022-11-05T11:58:45.772Z,20352.00
2022-11-05T12:00:07.723Z,20928.00
2022-11-05T12:00:46.764Z,22208.00
2022-11-05T12:01:45.808Z,22528.00
2022-11-05T12:02:46.319Z,22368.00
2022-11-05T12:03:45.743Z,22560.00
2022-11-05T12:04:45.749Z,22432.00
2022-11-05T12:05:45.723Z,22400.00
2022-11-05T12:06:45.738Z,22336.00
2022-11-05T12:07:47.076Z,22208.00
2022-11-05T12:08:52.246Z,22112.00
2022-11-05T12:09:46.689Z,22272.00
2022-11-05T12:10:45.704Z,22816.00
2022-11-05T12:11:45.679Z,23392.00
2022-11-05T12:12:45.855Z,24096.00
2022-11-05T12:13:45.688Z,23872.00
2022-11-05T12:14:46.758Z,23616.00
2022-11-05T12:15:45.658Z,23552.00
2022-11-05T12:16:45.636Z,10428.00
2022-11-05T12:17:45.628Z,22016.00
2022-11-05T12:18:45.629Z,18848.00
2022-11-05T12:19:46.160Z,19424.00
2022-11-05T12:20:48.264Z,9408.00
2022-11-05T12:21:53.015Z,8900.00
2022-11-05T12:22:46.596Z,5964.00
2022-11-05T12:23:45.621Z,5460.00
2022-11-05T12:24:45.585Z,4664.00
2022-11-05T12:25:45.577Z,4512.00
2022-11-05T12:26:45.571Z,5160.00
2022-11-05T12:27:45.566Z,5348.00
2022-11-05T12:29:12.166Z,5204.00
2022-11-05T12:29:46.567Z,4996.00
2022-11-05T12:30:45.545Z,5128.00
2022-11-05T12:31:45.563Z,5820.00
2022-11-05T12:32:45.607Z,6408.00
2022-11-05T12:33:45.523Z,7384.00